createdAt,value
2023-04-08T00:02:04.717Z,100.00
2023-04-08T00:04:32.411Z,100.00
2023-04-08T00:06:59.695Z,100.00
2023-04-08T00:09:27.035Z,100.00
2023-04-08T00:11:54.302Z,100.00
2023-04-08T00:14:21.674Z,100.00
2023-04-08T00:16:48.877Z,100.00
2023-04-08T00:19:16.157Z,100.00
2023-04-08T00:21:43.320Z,100.00
2023-04-08T00:24:11.090Z,100.00
2023-04-08T00:26:38.411Z,100.00
2023-04-08T00:29:06.362Z,100.00
2023-04-08T00:31:33.673Z,100.00
2023-04-08T00:34:00.881Z,100.00
2023-04-08T00:36:28.365Z,100.00
2023-04-08T00:38:55.639Z,100.00
2023-04-08T00:41:22.886Z,100.00
2023-04-08T00:43:50.144Z,100.00
2023-04-08T00:46:17.509Z,100.00
2023-04-08T00:48:44.882Z,100.00
2023-04-08T00:51:12.526Z,100.00
2023-04-08T00:53:39.766Z,100.00
2023-04-08T00:56:06.991Z,100.00
2023-04-08T00:58:34.183Z,100.00
2023-04-08T01:01:11.316Z,100.00
2023-04-08T01:04:26.320Z,100.00
2023-04-08T01:07:17.472Z,100.00
2023-04-08T01:09:53.143Z,100.00
2023-04-08T01:12:29.617Z,100.00
2023-04-08T01:15:06.641Z,100.00
2023-04-08T01:17:36.601Z,100.00
2023-04-08T01:20:06.142Z,100.00
2023-04-08T01:23:04.620Z,100.00
2023-04-08T01:25:35.286Z,100.00
2023-04-08T01:28:16.558Z,100.00
2023-04-08T01:30:45.170Z,100.00
2023-04-08T01:33:16.050Z,100.00
2023-04-08T01:35:44.834Z,100.00
2023-04-08T01:38:18.213Z,100.00
2023-04-08T01:40:47.307Z,100.00
2023-04-08T01:43:18.006Z,100.00
2023-04-08T01:45:46.001Z,100.00
2023-04-08T01:48:15.299Z,100.00
2023-04-08T01:50:44.906Z,100.00
2023-04-08T01:53:14.203Z,100.00
2023-04-08T01:55:43.364Z,100.00
2023-04-08T01:58:20.724Z,100.00
2023-04-08T02:00:48.571Z,100.00
2023-04-08T02:03:21.308Z,100.00
2023-04-08T02:05:48.893Z,100.00
2023-04-08T02:08:16.516Z,100.00
2023-04-08T02:10:43.833Z,100.00
2023-04-08T02:13:11.084Z,100.00
2023-04-08T02:15:47.771Z,100.00
2023-04-08T02:18:28.278Z,100.00
2023-04-08T02:21:13.792Z,100.00
2023-04-08T02:23:44.184Z,100.00
2023-04-08T02:26:15.856Z,100.00
2023-04-08T02:28:43.390Z,100.00
2023-04-08T02:31:13.759Z,100.00
2023-04-08T02:33:46.128Z,100.00
2023-04-08T02:36:16.015Z,100.00
2023-04-08T02:38:48.087Z,100.00
2023-04-08T02:41:17.038Z,100.00
2023-04-08T02:43:44.377Z,100.00
2023-04-08T02:46:12.681Z,100.00
2023-04-08T02:48:40.013Z,100.00
2023-04-08T02:51:07.258Z,100.00
2023-04-08T02:53:34.541Z,100.00
2023-04-08T02:56:01.832Z,100.00
2023-04-08T02:58:29.205Z,100.00
2023-04-08T03:00:56.559Z,100.00
2023-04-08T03:03:28.654Z,100.00
2023-04-08T03:05:59.546Z,100.00
2023-04-08T03:08:27.015Z,100.00
2023-04-08T03:10:54.294Z,100.00
2023-04-08T03:13:21.522Z,100.00
2023-04-08T03:15:48.756Z,100.00
2023-04-08T03:18:16.028Z,100.00
2023-04-08T03:20:43.270Z,100.00
2023-04-08T03:23:11.310Z,100.00
2023-04-08T03:25:38.588Z,100.00
2023-04-08T03:28:05.910Z,100.00
2023-04-08T03:30:33.365Z,100.00
2023-04-08T03:33:00.617Z,100.00
2023-04-08T03:35:28.527Z,100.00
2023-04-08T03:37:55.734Z,100.00
2023-04-08T03:40:22.936Z,100.00
2023-04-08T03:42:50.176Z,100.00
2023-04-08T03:45:17.367Z,100.00
2023-04-08T03:47:44.617Z,100.00
2023-04-08T03:50:12.314Z,100.00
2023-04-08T03:52:39.553Z,100.00
2023-04-08T03:55:07.221Z,100.00
2023-04-08T03:57:34.399Z,100.00
2023-04-08T04:00:01.957Z,100.00
2023-04-08T04:02:39.551Z,100.00
2023-04-08T04:05:07.416Z,100.00
2023-04-08T04:07:34.692Z,100.00
2023-04-08T04:10:02.294Z,100.00
2023-04-08T04:12:29.413Z,100.00
2023-04-08T04:14:56.709Z,100.00
2023-04-08T04:17:23.972Z,100.00
2023-04-08T04:19:51.293Z,100.00
2023-04-08T04:22:18.541Z,100.00
2023-04-08T04:24:49.772Z,100.00
2023-04-08T04:27:18.337Z,100.00
2023-04-08T04:29:45.713Z,100.00
2023-04-08T04:32:13.078Z,100.00
2023-04-08T04:34:40.438Z,100.00
2023-04-08T04:37:07.818Z,100.00
2023-04-08T04:39:35.013Z,100.00
2023-04-08T04:42:03.575Z,100.00
2023-04-08T04:44:31.193Z,100.00
2023-04-08T04:46:58.525Z,100.00
2023-04-08T04:49:26.068Z,100.00
2023-04-08T04:51:53.322Z,100.00
2023-04-08T04:54:20.682Z,100.00
2023-04-08T04:56:47.996Z,100.00
2023-04-08T04:59:15.484Z,100.00
2023-04-08T05:01:42.802Z,100.00
2023-04-08T05:04:10.076Z,100.00
2023-04-08T05:06:37.235Z,100.00
2023-04-08T05:09:04.591Z,100.00
2023-04-08T05:11:32.038Z,100.00
2023-04-08T05:13:59.260Z,100.00
2023-04-08T05:16:27.245Z,100.00
2023-04-08T05:18:54.712Z,100.00
2023-04-08T05:21:22.062Z,100.00
2023-04-08T05:23:51.139Z,100.00
2023-04-08T05:26:20.370Z,100.00
2023-04-08T05:28:53.704Z,100.00
2023-04-08T05:31:21.698Z,100.00
2023-04-08T05:33:49.005Z,100.00
2023-04-08T05:36:16.390Z,100.00
2023-04-08T05:38:44.384Z,100.00
2023-04-08T05:41:12.382Z,100.00
2023-04-08T05:43:39.700Z,100.00
2023-04-08T05:46:11.297Z,100.00
2023-04-08T05:48:38.533Z,100.00
2023-04-08T05:51:05.977Z,100.00
2023-04-08T05:53:33.299Z,100.00
2023-04-08T05:56:00.628Z,100.00
2023-04-08T05:58:27.908Z,100.00
2023-04-08T06:00:55.721Z,100.00
2023-04-08T06:03:23.208Z,100.00
2023-04-08T06:05:50.554Z,100.00
2023-04-08T06:08:17.744Z,100.00
2023-04-08T06:10:52.169Z,100.00
2023-04-08T06:13:21.104Z,100.00
2023-04-08T06:15:51.422Z,100.00
2023-04-08T06:18:18.777Z,100.00
2023-04-08T06:20:46.509Z,100.00
2023-04-08T06:23:14.280Z,100.00
2023-04-08T06:25:42.030Z,100.00
2023-04-08T06:28:09.413Z,100.00
2023-04-08T06:30:36.659Z,100.00
2023-04-08T06:33:04.208Z,100.00
2023-04-08T06:35:32.342Z,100.00
2023-04-08T06:38:00.144Z,100.00
2023-04-08T06:40:27.415Z,100.00
2023-04-08T06:42:54.891Z,100.00
2023-04-08T06:45:33.862Z,100.00
2023-04-08T06:48:01.453Z,100.00
2023-04-08T06:50:28.701Z,100.00
2023-04-08T06:52:55.916Z,100.00
2023-04-08T06:55:23.249Z,100.00
2023-04-08T06:57:50.549Z,100.00
2023-04-08T07:00:18.229Z,100.00
2023-04-08T07:02:45.736Z,100.00
2023-04-08T07:05:13.178Z,100.00
2023-04-08T07:07:40.472Z,100.00
2023-04-08T07:10:10.794Z,100.00
2023-04-08T07:12:38.309Z,100.00
2023-04-08T07:15:06.397Z,100.00
2023-04-08T07:17:34.282Z,100.00
2023-04-08T07:20:01.831Z,100.00
2023-04-08T07:22:29.051Z,100.00
2023-04-08T07:24:56.372Z,100.00
2023-04-08T07:27:23.545Z,100.00
2023-04-08T07:29:56.982Z,100.00
2023-04-08T07:32:24.503Z,100.00
2023-04-08T07:34:51.929Z,100.00
2023-04-08T07:37:19.266Z,100.00
2023-04-08T07:39:46.515Z,100.00
2023-04-08T07:42:13.728Z,100.00
2023-04-08T07:44:40.943Z,100.00
2023-04-08T07:47:09.731Z,100.00
2023-04-08T07:49:36.998Z,99.89
2023-04-08T07:52:04.801Z,100.00
2023-04-08T07:54:34.404Z,100.00
2023-04-08T07:57:02.321Z,100.00
2023-04-08T07:59:29.988Z,100.00
2023-04-08T08:01:57.395Z,100.00
2023-04-08T08:04:26.465Z,100.00
2023-04-08T08:06:53.935Z,100.00
2023-04-08T08:09:21.180Z,100.00
2023-04-08T08:11:48.569Z,100.00
2023-04-08T08:14:15.853Z,100.00
2023-04-08T08:16:44.740Z,100.00
2023-04-08T08:19:13.958Z,100.00
2023-04-08T08:21:41.850Z,100.00
2023-04-08T08:24:09.116Z,100.00
2023-04-08T08:26:39.444Z,100.00
2023-04-08T08:29:09.106Z,100.00
2023-04-08T08:31:36.569Z,100.00
2023-04-08T08:34:03.813Z,100.00
2023-04-08T08:36:32.733Z,100.00
2023-04-08T08:39:01.418Z,100.00
2023-04-08T08:41:35.414Z,100.00
2023-04-08T08:44:06.606Z,100.00
2023-04-08T08:46:34.397Z,97.14
2023-04-08T08:49:02.393Z,98.93
2023-04-08T08:51:32.852Z,97.78
2023-04-08T08:54:04.390Z,96.24
2023-04-08T08:56:34.542Z,100.00
2023-04-08T08:59:01.848Z,99.76
2023-04-08T09:01:33.295Z,100.00
2023-04-08T09:04:16.634Z,100.00
2023-04-08T09:06:50.207Z,100.00
2023-04-08T09:09:20.716Z,100.00
2023-04-08T09:11:48.111Z,99.80
2023-04-08T09:14:24.211Z,98.09
2023-04-08T09:16:53.362Z,97.40
2023-04-08T09:19:21.172Z,94.79
2023-04-08T09:22:09.830Z,91.54
2023-04-08T09:24:38.124Z,88.76
2023-04-08T09:27:05.944Z,84.71
2023-04-08T09:29:37.362Z,78.39
2023-04-08T09:32:06.812Z,68.32
2023-04-08T09:34:34.610Z,56.97
2023-04-08T09:37:02.329Z,54.96
2023-04-08T09:39:30.827Z,54.02
2023-04-08T09:42:01.484Z,57.11
2023-04-08T09:44:30.665Z,51.12
2023-04-08T09:47:12.865Z,51.61
2023-04-08T09:50:03.209Z,55.95
2023-04-08T09:53:08.227Z,49.13
2023-04-08T09:55:37.552Z,41.26
2023-04-08T09:58:16.324Z,41.31
2023-04-08T10:00:51.038Z,45.26
2023-04-08T10:03:49.966Z,50.51
2023-04-08T10:06:18.109Z,54.18
2023-04-08T10:08:45.924Z,56.17
2023-04-08T10:11:16.688Z,56.31
2023-04-08T10:13:44.584Z,48.92
2023-04-08T10:16:27.279Z,46.54
2023-04-08T10:18:58.298Z,45.68
2023-04-08T10:21:52.074Z,49.23
2023-04-08T10:24:24.254Z,53.27
2023-04-08T10:26:51.578Z,60.51
2023-04-08T10:29:18.676Z,62.71
2023-04-08T10:31:52.919Z,65.70
2023-04-08T10:34:22.857Z,71.10
2023-04-08T10:36:50.761Z,72.42
2023-04-08T10:39:18.391Z,72.05
2023-04-08T10:41:51.555Z,72.37
2023-04-08T10:44:26.755Z,73.98
2023-04-08T10:46:55.139Z,72.23
2023-04-08T10:49:22.678Z,70.12
2023-04-08T10:51:50.067Z,70.88
2023-04-08T10:54:18.683Z,69.00
2023-04-08T10:56:52.494Z,66.68
2023-04-08T10:59:33.090Z,64.57
2023-04-08T11:02:01.613Z,63.23
2023-04-08T11:04:29.289Z,63.71
2023-04-08T11:06:56.815Z,63.78
2023-04-08T11:09:24.043Z,65.95
2023-04-08T11:11:52.440Z,66.83
2023-04-08T11:14:21.981Z,69.32
2023-04-08T11:16:49.586Z,69.24
2023-04-08T11:19:17.053Z,71.93
2023-04-08T11:21:44.598Z,70.15
2023-04-08T11:24:13.484Z,67.14
2023-04-08T11:26:42.145Z,65.39
2023-04-08T11:29:14.469Z,62.02
2023-04-08T11:31:43.960Z,63.36
2023-04-08T11:34:11.496Z,62.35
2023-04-08T11:36:41.867Z,60.38
2023-04-08T11:39:12.427Z,59.23
2023-04-08T11:41:40.760Z,59.17
2023-04-08T11:44:08.957Z,60.22
2023-04-08T11:46:36.667Z,61.96
2023-04-08T11:49:07.032Z,57.92
2023-04-08T11:51:58.053Z,63.17
2023-04-08T11:54:33.598Z,62.92
2023-04-08T11:57:03.108Z,66.88
2023-04-08T11:59:30.501Z,68.28
2023-04-08T12:01:58.186Z,67.94
2023-04-08T12:04:25.970Z,66.02
2023-04-08T12:06:53.474Z,63.77
2023-04-08T12:09:20.830Z,67.80
2023-04-08T12:11:48.370Z,63.22
2023-04-08T12:14:15.766Z,64.31
2023-04-08T12:16:43.078Z,63.89
2023-04-08T12:19:10.435Z,65.16
2023-04-08T12:21:38.282Z,64.24
2023-04-08T12:24:05.845Z,62.27
2023-04-08T12:26:33.231Z,65.40
2023-04-08T12:29:00.853Z,62.75
2023-04-08T12:31:28.562Z,61.63
2023-04-08T12:33:55.936Z,59.91
2023-04-08T12:36:23.215Z,59.89
2023-04-08T12:38:50.809Z,62.56
2023-04-08T12:41:18.113Z,61.43
2023-04-08T12:43:45.611Z,61.79
2023-04-08T12:46:13.420Z,61.68
2023-04-08T12:48:40.952Z,64.98
2023-04-08T12:51:10.460Z,67.66
2023-04-08T12:53:37.805Z,69.02
2023-04-08T12:56:05.564Z,68.80
2023-04-08T12:58:32.926Z,67.47
2023-04-08T13:01:00.414Z,69.60
2023-04-08T13:03:30.621Z,67.77
2023-04-08T13:05:59.273Z,66.12
2023-04-08T13:08:26.553Z,70.27
2023-04-08T13:10:54.856Z,67.73
2023-04-08T13:13:22.072Z,68.54
2023-04-08T13:15:49.590Z,69.93
2023-04-08T13:18:17.114Z,68.23
2023-04-08T13:20:44.348Z,66.52
2023-04-08T13:23:12.013Z,69.12
2023-04-08T13:25:39.261Z,66.52
2023-04-08T13:28:06.692Z,64.05
2023-04-08T13:30:34.121Z,67.10
2023-04-08T13:33:01.384Z,67.28
2023-04-08T13:35:28.657Z,68.22
2023-04-08T13:37:56.190Z,70.80
2023-04-08T13:40:24.116Z,69.88
2023-04-08T13:42:51.812Z,67.79
2023-04-08T13:45:20.291Z,65.60
2023-04-08T13:47:47.591Z,67.77
2023-04-08T13:50:14.954Z,68.60
2023-04-08T13:52:42.136Z,69.52
2023-04-08T13:55:09.571Z,69.76
2023-04-08T13:57:36.814Z,69.32
2023-04-08T14:00:05.123Z,69.09
2023-04-08T14:02:37.538Z,71.46
2023-04-08T14:05:05.318Z,72.23
2023-04-08T14:07:32.597Z,74.03
2023-04-08T14:09:59.956Z,74.48
2023-04-08T14:12:27.333Z,73.58
2023-04-08T14:14:54.569Z,73.19
2023-04-08T14:17:21.832Z,75.18
2023-04-08T14:19:52.171Z,75.19
2023-04-08T14:22:19.535Z,75.33
2023-04-08T14:24:46.704Z,78.14
2023-04-08T14:27:14.061Z,77.47
2023-04-08T14:29:41.562Z,76.84
2023-04-08T14:32:08.845Z,76.56
2023-04-08T14:34:37.506Z,75.61
2023-04-08T14:37:05.313Z,76.31
2023-04-08T14:39:32.563Z,76.07
2023-04-08T14:41:59.864Z,78.07
2023-04-08T14:44:27.064Z,77.74
2023-04-08T14:46:54.423Z,77.20
2023-04-08T14:49:21.772Z,78.14
2023-04-08T14:51:49.948Z,79.34
2023-04-08T14:54:19.049Z,78.82
2023-04-08T14:56:46.245Z,79.51
2023-04-08T14:59:13.554Z,80.54
2023-04-08T15:01:41.524Z,80.50
2023-04-08T15:04:09.045Z,79.78
2023-04-08T15:06:36.822Z,80.14
2023-04-08T15:09:04.116Z,81.73
2023-04-08T15:11:31.376Z,81.92
2023-04-08T15:13:58.707Z,80.68
2023-04-08T15:16:26.552Z,82.87
2023-04-08T15:18:53.918Z,81.78
2023-04-08T15:21:22.908Z,82.17
2023-04-08T15:23:50.333Z,83.44
2023-04-08T15:26:17.534Z,83.75
2023-04-08T15:28:44.839Z,84.85
2023-04-08T15:31:12.546Z,86.23
2023-04-08T15:33:41.499Z,84.14
2023-04-08T15:36:09.157Z,83.81
2023-04-08T15:38:41.454Z,85.35
2023-04-08T15:41:24.753Z,84.61
2023-04-08T15:43:53.319Z,86.30
2023-04-08T15:46:21.530Z,86.13
2023-04-08T15:48:49.667Z,86.82
2023-04-08T15:51:17.317Z,86.93
2023-04-08T15:53:44.606Z,87.87
2023-04-08T15:56:16.685Z,87.72
2023-04-08T15:58:45.796Z,88.54
2023-04-08T16:01:13.520Z,90.09
2023-04-08T16:03:41.139Z,92.46
2023-04-08T16:06:08.841Z,92.64
2023-04-08T16:08:37.248Z,93.77
2023-04-08T16:11:06.649Z,93.21
2023-04-08T16:13:34.611Z,93.13
2023-04-08T16:16:02.602Z,94.32
2023-04-08T16:18:30.702Z,96.19
2023-04-08T16:20:58.116Z,94.88
2023-04-08T16:23:25.725Z,95.41
2023-04-08T16:25:53.175Z,96.00
2023-04-08T16:28:20.511Z,93.58
2023-04-08T16:30:48.064Z,96.34
2023-04-08T16:33:16.143Z,96.18
2023-04-08T16:35:43.447Z,95.21
2023-04-08T16:38:11.024Z,94.14
2023-04-08T16:40:39.298Z,95.90
2023-04-08T16:43:06.764Z,95.39
2023-04-08T16:45:34.052Z,95.99
2023-04-08T16:48:01.506Z,95.18
2023-04-08T16:50:29.136Z,95.74
2023-04-08T16:52:56.719Z,94.60
2023-04-08T16:55:23.973Z,94.47
2023-04-08T16:57:51.334Z,95.83
2023-04-08T17:00:20.583Z,94.44
2023-04-08T17:02:48.529Z,96.13
2023-04-08T17:05:16.571Z,96.92
2023-04-08T17:07:44.142Z,95.66
2023-04-08T17:10:11.374Z,95.23
2023-04-08T17:12:38.685Z,96.55
2023-04-08T17:15:06.833Z,96.72
2023-04-08T17:17:34.172Z,99.48
2023-04-08T17:20:01.466Z,99.80
2023-04-08T17:22:28.844Z,99.48
2023-04-08T17:24:56.204Z,99.35
2023-04-08T17:27:23.618Z,100.00
2023-04-08T17:29:56.420Z,100.00
2023-04-08T17:32:27.269Z,100.00
2023-04-08T17:34:54.882Z,100.00
2023-04-08T17:37:22.199Z,100.00
2023-04-08T17:39:49.475Z,100.00
2023-04-08T17:42:17.101Z,100.00
2023-04-08T17:44:44.886Z,100.00
2023-04-08T17:47:12.103Z,100.00
2023-04-08T17:49:39.409Z,100.00
2023-04-08T17:52:06.626Z,100.00
2023-04-08T17:54:34.703Z,100.00
2023-04-08T17:57:03.172Z,100.00
2023-04-08T17:59:30.926Z,100.00
2023-04-08T18:01:58.337Z,99.42
2023-04-08T18:04:25.791Z,99.52
2023-04-08T18:06:53.106Z,98.57
2023-04-08T18:09:20.322Z,97.86
2023-04-08T18:11:50.314Z,98.68
2023-04-08T18:14:17.547Z,97.79
2023-04-08T18:16:44.932Z,98.63
2023-04-08T18:19:13.536Z,99.30
2023-04-08T18:21:40.776Z,99.97
2023-04-08T18:24:09.402Z,99.55
2023-04-08T18:26:36.803Z,99.89
2023-04-08T18:29:04.156Z,99.05
2023-04-08T18:31:31.402Z,99.54
2023-04-08T18:33:58.651Z,99.76
2023-04-08T18:36:26.635Z,98.71
2023-04-08T18:38:53.862Z,99.79
2023-04-08T18:41:23.344Z,100.00
2023-04-08T18:43:51.474Z,100.00
2023-04-08T18:46:19.966Z,100.00
2023-04-08T18:48:49.235Z,100.00
2023-04-08T18:51:16.848Z,100.00
2023-04-08T18:53:44.729Z,100.00
2023-04-08T18:56:19.712Z,100.00
2023-04-08T18:58:47.649Z,100.00
2023-04-08T19:01:14.922Z,100.00
2023-04-08T19:03:45.914Z,100.00
2023-04-08T19:06:13.687Z,100.00
2023-04-08T19:08:41.510Z,100.00
2023-04-08T19:11:08.752Z,100.00
2023-04-08T19:13:36.305Z,100.00
2023-04-08T19:16:03.639Z,100.00
2023-04-08T19:18:31.395Z,100.00
2023-04-08T19:20:58.707Z,100.00
2023-04-08T19:23:26.173Z,100.00
2023-04-08T19:25:53.536Z,100.00
2023-04-08T19:28:21.159Z,100.00
2023-04-08T19:30:50.057Z,100.00
2023-04-08T19:33:18.367Z,100.00
2023-04-08T19:35:47.857Z,100.00
2023-04-08T19:38:15.169Z,100.00
2023-04-08T19:40:42.427Z,100.00
2023-04-08T19:43:09.667Z,100.00
2023-04-08T19:45:36.955Z,100.00
2023-04-08T19:48:04.298Z,100.00
2023-04-08T19:50:32.008Z,100.00
2023-04-08T19:52:59.440Z,100.00
2023-04-08T19:55:26.804Z,100.00
2023-04-08T19:57:54.382Z,100.00
2023-04-08T20:00:22.132Z,100.00
2023-04-08T20:02:49.654Z,100.00
2023-04-08T20:05:17.694Z,100.00
2023-04-08T20:07:44.902Z,100.00
2023-04-08T20:10:15.252Z,100.00
2023-04-08T20:12:42.668Z,100.00
2023-04-08T20:15:22.710Z,100.00
2023-04-08T20:17:52.970Z,100.00
2023-04-08T20:20:20.669Z,100.00
2023-04-08T20:22:47.896Z,100.00
2023-04-08T20:25:15.162Z,100.00
2023-04-08T20:27:42.655Z,100.00
2023-04-08T20:30:10.698Z,100.00
2023-04-08T20:32:38.012Z,100.00
2023-04-08T20:35:05.862Z,100.00
2023-04-08T20:37:33.583Z,100.00
2023-04-08T20:40:01.039Z,100.00
2023-04-08T20:42:28.896Z,100.00
2023-04-08T20:44:56.099Z,100.00
2023-04-08T20:47:23.351Z,100.00
2023-04-08T20:49:50.581Z,100.00
2023-04-08T20:52:17.924Z,100.00
2023-04-08T20:54:45.514Z,100.00
2023-04-08T20:57:12.855Z,100.00
2023-04-08T20:59:40.097Z,100.00
2023-04-08T21:02:08.320Z,100.00
2023-04-08T21:04:36.005Z,100.00
2023-04-08T21:07:03.297Z,100.00
2023-04-08T21:09:30.470Z,100.00
2023-04-08T21:11:57.677Z,100.00
2023-04-08T21:14:25.001Z,100.00
2023-04-08T21:16:52.113Z,100.00
2023-04-08T21:19:19.307Z,100.00
2023-04-08T21:21:46.799Z,100.00
2023-04-08T21:24:14.064Z,100.00
2023-04-08T21:26:41.278Z,100.00
2023-04-08T21:29:08.546Z,100.00
2023-04-08T21:31:35.985Z,100.00
2023-04-08T21:34:06.096Z,100.00
2023-04-08T21:36:33.509Z,100.00
2023-04-08T21:39:00.708Z,100.00
2023-04-08T21:41:29.807Z,100.00
2023-04-08T21:43:57.865Z,100.00
2023-04-08T21:46:25.102Z,100.00
2023-04-08T21:48:53.132Z,100.00
2023-04-08T21:51:20.589Z,100.00
2023-04-08T21:53:47.839Z,100.00
2023-04-08T21:56:15.071Z,100.00
2023-04-08T21:58:42.214Z,100.00
2023-04-08T22:01:09.432Z,100.00
2023-04-08T22:03:36.749Z,100.00
2023-04-08T22:06:04.264Z,100.00
2023-04-08T22:08:32.541Z,100.00
2023-04-08T22:10:59.965Z,100.00
2023-04-08T22:13:27.300Z,100.00
2023-04-08T22:15:54.497Z,100.00
2023-04-08T22:18:21.695Z,100.00
2023-04-08T22:20:49.001Z,100.00
2023-04-08T22:23:16.263Z,100.00
2023-04-08T22:25:43.504Z,100.00
2023-04-08T22:28:10.782Z,100.00
2023-04-08T22:30:37.928Z,100.00
2023-04-08T22:33:05.340Z,100.00
2023-04-08T22:35:32.624Z,100.00
2023-04-08T22:37:59.834Z,100.00
2023-04-08T22:40:27.532Z,100.00
2023-04-08T22:42:56.133Z,100.00
2023-04-08T22:45:23.421Z,100.00
2023-04-08T22:47:50.615Z,100.00
2023-04-08T22:50:17.916Z,100.00
2023-04-08T22:52:45.317Z,100.00
2023-04-08T22:55:12.607Z,100.00
2023-04-08T22:57:39.881Z,100.00
2023-04-08T23:00:08.318Z,100.00
2023-04-08T23:02:35.710Z,100.00
2023-04-08T23:05:03.048Z,100.00
2023-04-08T23:07:30.484Z,100.00
2023-04-08T23:09:57.718Z,100.00
2023-04-08T23:12:24.839Z,100.00
2023-04-08T23:14:52.033Z,100.00
2023-04-08T23:17:19.173Z,100.00
2023-04-08T23:19:46.444Z,100.00
2023-04-08T23:22:14.349Z,100.00
2023-04-08T23:24:41.660Z,100.00
2023-04-08T23:27:08.960Z,100.00
2023-04-08T23:29:36.297Z,100.00
2023-04-08T23:32:03.579Z,100.00
2023-04-08T23:34:30.822Z,100.00
2023-04-08T23:36:57.989Z,100.00
2023-04-08T23:39:25.367Z,100.00
2023-04-08T23:41:52.485Z,100.00
2023-04-08T23:44:19.697Z,100.00
2023-04-08T23:46:46.992Z,100.00
2023-04-08T23:49:14.261Z,100.00
2023-04-08T23:51:41.506Z,100.00
2023-04-08T23:54:08.877Z,100.00
2023-04-08T23:56:36.055Z,100.00
2023-04-08T23:59:03.345Z,100.00
